Portada
METAR-TAF:

METAR-TAF

Aeroports :

Sukkur, Pakistan

latitud: 27-43-19N, longitud: 068-47-31E, altitud: 60 m

Observació

L'informe es va fer fa 11 minuts, a les 12:00 UTC
Vent calma
Temperatura 37°C
Humitat 60%
Pressió 1001 hPa
Visibilitat: 5000 m
calitja

METAR: OPSK 261200Z 00000KT 5000 HZ NSC 37/28 Q1001 NOSIG

Hora: 17:11 (12:11 UTC)

Pronòstic

L'informe es va fer fa 2 hores i 41 minuts, a les 09:30 UTC
Pronòstic vàlid del 26 a les 12 UTC al 27 a les 12 UTC
Vent 10 kt del Nord/Nord-Est
Visibilitat: 4000 m
calitja
Evolucionant progressivament
l' 26 a les 16 UTC al 26 a les 18 UTC
Visibilitat: 3000 m
calitja
A partir de les 27 a les 0400 UTC
Vent 8 kt del Sud-Est
Visibilitat: 4000 m
calitja

TAF: OPSK 260930Z 2612/2712 03010KT 4000 HZ NSC BECMG 2616/2618 2616/2618 3000 HZ NSC FM270400 14008KT 4000 HZ NSC

Observacions i pronòstics meteorològics de més de 4000 aeroports (METAR i TAF).

Les estacions disponibles són els punts grocs i vermells al mapa.

Posi el ratolí al punt desitjat per veure el nom de l'estació.

Feu clic per veure les observacions i els pronòstics meteorològics.

Per canviar el mapa: feu clic els botons verds amb una creu de color negre per apropar; al botó verd amb un guió per allunyar la imatge; o en les fletxes verdes per a mapes adjacents.


METAR-TAF: